sensor_id;sensor_type;location;lat;lon;timestamp;P1;durP1;ratioP1;P2;durP2;ratioP2
18752;SDS011;9505;50.882;5.350;2023-02-19T00:01:28;31.27;;;8.02;;
18752;SDS011;9505;50.882;5.350;2023-02-19T00:04:02;39.55;;;9.40;;
18752;SDS011;9505;50.882;5.350;2023-02-19T00:06:30;35.40;;;8.95;;
18752;SDS011;9505;50.882;5.350;2023-02-19T00:08:57;37.90;;;9.20;;
18752;SDS011;9505;50.882;5.350;2023-02-19T00:11:24;35.38;;;8.60;;
18752;SDS011;9505;50.882;5.350;2023-02-19T00:13:56;32.65;;;8.10;;
18752;SDS011;9505;50.882;5.350;2023-02-19T00:16:27;31.13;;;8.60;;
18752;SDS011;9505;50.882;5.350;2023-02-19T00:19:04;39.70;;;9.18;;
18752;SDS011;9505;50.882;5.350;2023-02-19T00:21:31;32.15;;;8.85;;
18752;SDS011;9505;50.882;5.350;2023-02-19T00:23:58;35.70;;;9.10;;
18752;SDS011;9505;50.882;5.350;2023-02-19T00:26:28;36.97;;;9.07;;
18752;SDS011;9505;50.882;5.350;2023-02-19T00:28:54;25.83;;;7.72;;
18752;SDS011;9505;50.882;5.350;2023-02-19T00:31:22;31.10;;;8.20;;
18752;SDS011;9505;50.882;5.350;2023-02-19T00:33:53;31.58;;;8.65;;
18752;SDS011;9505;50.882;5.350;2023-02-19T00:36:20;31.35;;;9.05;;
18752;SDS011;9505;50.882;5.350;2023-02-19T00:38:46;33.55;;;9.20;;
18752;SDS011;9505;50.882;5.350;2023-02-19T00:41:13;38.78;;;9.55;;
18752;SDS011;9505;50.882;5.350;2023-02-19T00:44:04;38.88;;;9.30;;
18752;SDS011;9505;50.882;5.350;2023-02-19T00:46:35;32.40;;;8.65;;
18752;SDS011;9505;50.882;5.350;2023-02-19T00:49:03;37.90;;;9.40;;
18752;SDS011;9505;50.882;5.350;2023-02-19T00:51:31;37.53;;;8.75;;
18752;SDS011;9505;50.882;5.350;2023-02-19T00:53:59;35.17;;;9.02;;
18752;SDS011;9505;50.882;5.350;2023-02-19T00:56:25;38.92;;;9.00;;
18752;SDS011;9505;50.882;5.350;2023-02-19T00:58:51;33.65;;;8.13;;
18752;SDS011;9505;50.882;5.350;2023-02-19T01:01:17;34.67;;;8.27;;
18752;SDS011;9505;50.882;5.350;2023-02-19T01:03:44;25.30;;;7.68;;
18752;SDS011;9505;50.882;5.350;2023-02-19T01:06:10;35.92;;;8.27;;
18752;SDS011;9505;50.882;5.350;2023-02-19T01:08:38;37.75;;;9.25;;
18752;SDS011;9505;50.882;5.350;2023-02-19T01:11:05;39.60;;;9.60;;
18752;SDS011;9505;50.882;5.350;2023-02-19T01:13:31;39.10;;;9.43;;
18752;SDS011;9505;50.882;5.350;2023-02-19T01:18:33;38.50;;;9.35;;
18752;SDS011;9505;50.882;5.350;2023-02-19T01:21:03;40.10;;;10.63;;
18752;SDS011;9505;50.882;5.350;2023-02-19T01:23:34;39.45;;;9.88;;
18752;SDS011;9505;50.882;5.350;2023-02-19T01:26:02;40.90;;;9.40;;
18752;SDS011;9505;50.882;5.350;2023-02-19T01:28:33;37.35;;;9.70;;
18752;SDS011;9505;50.882;5.350;2023-02-19T01:31:04;40.10;;;9.95;;
18752;SDS011;9505;50.882;5.350;2023-02-19T01:33:31;43.40;;;9.82;;
18752;SDS011;9505;50.882;5.350;2023-02-19T01:35:58;42.92;;;10.27;;
18752;SDS011;9505;50.882;5.350;2023-02-19T01:38:24;41.47;;;9.65;;
18752;SDS011;9505;50.882;5.350;2023-02-19T01:41:24;39.30;;;9.80;;
18752;SDS011;9505;50.882;5.350;2023-02-19T01:46:23;37.20;;;10.48;;
18752;SDS011;9505;50.882;5.350;2023-02-19T01:48:50;40.38;;;10.10;;
18752;SDS011;9505;50.882;5.350;2023-02-19T01:51:17;39.63;;;10.43;;
18752;SDS011;9505;50.882;5.350;2023-02-19T01:53:45;44.83;;;10.40;;
18752;SDS011;9505;50.882;5.350;2023-02-19T01:56:16;39.83;;;9.55;;
18752;SDS011;9505;50.882;5.350;2023-02-19T01:58:44;39.28;;;9.35;;
18752;SDS011;9505;50.882;5.350;2023-02-19T02:01:10;42.10;;;9.75;;
18752;SDS011;9505;50.882;5.350;2023-02-19T02:03:36;46.47;;;10.15;;
18752;SDS011;9505;50.882;5.350;2023-02-19T02:06:05;51.00;;;10.48;;
18752;SDS011;9505;50.882;5.350;2023-02-19T02:08:35;36.28;;;9.43;;
18752;SDS011;9505;50.882;5.350;2023-02-19T02:11:20;40.42;;;9.38;;
18752;SDS011;9505;50.882;5.350;2023-02-19T02:13:46;35.70;;;8.45;;
18752;SDS011;9505;50.882;5.350;2023-02-19T02:16:28;35.38;;;8.27;;
18752;SDS011;9505;50.882;5.350;2023-02-19T02:19:14;32.13;;;8.15;;
18752;SDS011;9505;50.882;5.350;2023-02-19T02:21:58;33.17;;;7.45;;
18752;SDS011;9505;50.882;5.350;2023-02-19T02:27:56;40.28;;;8.68;;
18752;SDS011;9505;50.882;5.350;2023-02-19T02:38:34;41.72;;;7.80;;
18752;SDS011;9505;50.882;5.350;2023-02-19T02:41:02;28.42;;;6.65;;
18752;SDS011;9505;50.882;5.350;2023-02-19T02:43:30;37.30;;;7.93;;
18752;SDS011;9505;50.882;5.350;2023-02-19T02:45:55;42.22;;;8.10;;
18752;SDS011;9505;50.882;5.350;2023-02-19T02:48:23;39.80;;;8.15;;
18752;SDS011;9505;50.882;5.350;2023-02-19T02:51:42;36.17;;;8.15;;
18752;SDS011;9505;50.882;5.350;2023-02-19T02:53:52;34.67;;;7.68;;
18752;SDS011;9505;50.882;5.350;2023-02-19T02:56:40;39.45;;;7.90;;
18752;SDS011;9505;50.882;5.350;2023-02-19T02:59:09;42.60;;;8.02;;
18752;SDS011;9505;50.882;5.350;2023-02-19T03:05:03;38.05;;;7.70;;
18752;SDS011;9505;50.882;5.350;2023-02-19T03:10:38;45.72;;;7.80;;
18752;SDS011;9505;50.882;5.350;2023-02-19T03:13:13;33.97;;;7.25;;
18752;SDS011;9505;50.882;5.350;2023-02-19T03:16:18;40.55;;;7.85;;
18752;SDS011;9505;50.882;5.350;2023-02-19T03:19:08;36.45;;;7.47;;
18752;SDS011;9505;50.882;5.350;2023-02-19T03:22:26;41.58;;;7.60;;
18752;SDS011;9505;50.882;5.350;2023-02-19T03:24:37;42.97;;;7.88;;
18752;SDS011;9505;50.882;5.350;2023-02-19T03:27:28;36.45;;;6.50;;
18752;SDS011;9505;50.882;5.350;2023-02-19T03:29:56;35.35;;;6.72;;
18752;SDS011;9505;50.882;5.350;2023-02-19T03:32:29;47.90;;;8.20;;
18752;SDS011;9505;50.882;5.350;2023-02-19T03:35:05;39.35;;;6.85;;
18752;SDS011;9505;50.882;5.350;2023-02-19T03:37:37;32.30;;;6.53;;
18752;SDS011;9505;50.882;5.350;2023-02-19T03:40:09;38.00;;;7.13;;
18752;SDS011;9505;50.882;5.350;2023-02-19T03:48:05;39.85;;;6.95;;
18752;SDS011;9505;50.882;5.350;2023-02-19T03:50:57;35.40;;;6.25;;
18752;SDS011;9505;50.882;5.350;2023-02-19T03:58:57;36.83;;;6.00;;
18752;SDS011;9505;50.882;5.350;2023-02-19T04:04:06;42.53;;;5.60;;
18752;SDS011;9505;50.882;5.350;2023-02-19T04:06:39;42.60;;;6.07;;
18752;SDS011;9505;50.882;5.350;2023-02-19T04:09:08;33.55;;;5.43;;
18752;SDS011;9505;50.882;5.350;2023-02-19T04:11:36;31.67;;;5.30;;
18752;SDS011;9505;50.882;5.350;2023-02-19T04:14:10;34.65;;;5.25;;
18752;SDS011;9505;50.882;5.350;2023-02-19T04:16:40;42.05;;;6.25;;
18752;SDS011;9505;50.882;5.350;2023-02-19T04:19:12;40.05;;;5.93;;
18752;SDS011;9505;50.882;5.350;2023-02-19T04:21:40;35.13;;;5.28;;
18752;SDS011;9505;50.882;5.350;2023-02-19T04:24:20;30.33;;;5.05;;
18752;SDS011;9505;50.882;5.350;2023-02-19T04:26:51;29.65;;;4.30;;
18752;SDS011;9505;50.882;5.350;2023-02-19T04:29:18;37.70;;;5.18;;
18752;SDS011;9505;50.882;5.350;2023-02-19T04:31:44;38.10;;;5.10;;
18752;SDS011;9505;50.882;5.350;2023-02-19T04:34:10;36.38;;;5.03;;
18752;SDS011;9505;50.882;5.350;2023-02-19T04:36:35;30.80;;;4.95;;
18752;SDS011;9505;50.882;5.350;2023-02-19T04:39:01;37.25;;;5.97;;
18752;SDS011;9505;50.882;5.350;2023-02-19T04:41:27;34.75;;;4.93;;
18752;SDS011;9505;50.882;5.350;2023-02-19T04:43:52;29.60;;;4.65;;
18752;SDS011;9505;50.882;5.350;2023-02-19T04:46:18;38.80;;;5.25;;
18752;SDS011;9505;50.882;5.350;2023-02-19T04:48:44;43.53;;;5.32;;
18752;SDS011;9505;50.882;5.350;2023-02-19T04:51:09;48.72;;;6.03;;
18752;SDS011;9505;50.882;5.350;2023-02-19T04:53:35;40.67;;;5.90;;
18752;SDS011;9505;50.882;5.350;2023-02-19T04:56:08;41.42;;;5.43;;
18752;SDS011;9505;50.882;5.350;2023-02-19T04:58:36;41.85;;;5.40;;
18752;SDS011;9505;50.882;5.350;2023-02-19T05:01:03;36.83;;;5.30;;
18752;SDS011;9505;50.882;5.350;2023-02-19T05:03:29;38.22;;;5.63;;
18752;SDS011;9505;50.882;5.350;2023-02-19T05:05:55;33.92;;;5.75;;
18752;SDS011;9505;50.882;5.350;2023-02-19T05:08:20;41.70;;;5.45;;
18752;SDS011;9505;50.882;5.350;2023-02-19T05:10:46;35.72;;;4.85;;
18752;SDS011;9505;50.882;5.350;2023-02-19T05:13:11;41.17;;;6.22;;
18752;SDS011;9505;50.882;5.350;2023-02-19T05:15:37;44.55;;;5.63;;
18752;SDS011;9505;50.882;5.350;2023-02-19T05:18:03;39.28;;;5.15;;
18752;SDS011;9505;50.882;5.350;2023-02-19T05:20:28;42.50;;;5.70;;
18752;SDS011;9505;50.882;5.350;2023-02-19T05:22:54;34.15;;;5.00;;
18752;SDS011;9505;50.882;5.350;2023-02-19T05:25:20;31.40;;;4.93;;
18752;SDS011;9505;50.882;5.350;2023-02-19T05:27:45;41.92;;;5.10;;
18752;SDS011;9505;50.882;5.350;2023-02-19T05:30:11;52.42;;;6.10;;
18752;SDS011;9505;50.882;5.350;2023-02-19T05:32:37;34.45;;;5.22;;
18752;SDS011;9505;50.882;5.350;2023-02-19T05:35:03;36.80;;;5.15;;
18752;SDS011;9505;50.882;5.350;2023-02-19T05:37:28;40.00;;;5.43;;
18752;SDS011;9505;50.882;5.350;2023-02-19T05:39:54;45.63;;;6.97;;
18752;SDS011;9505;50.882;5.350;2023-02-19T05:42:19;36.28;;;5.03;;
18752;SDS011;9505;50.882;5.350;2023-02-19T05:44:45;38.33;;;5.53;;
18752;SDS011;9505;50.882;5.350;2023-02-19T05:47:11;39.35;;;5.40;;
18752;SDS011;9505;50.882;5.350;2023-02-19T05:49:37;36.03;;;5.30;;
18752;SDS011;9505;50.882;5.350;2023-02-19T05:52:03;45.33;;;6.97;;
18752;SDS011;9505;50.882;5.350;2023-02-19T05:54:29;33.45;;;4.60;;
18752;SDS011;9505;50.882;5.350;2023-02-19T05:56:54;41.88;;;4.78;;
18752;SDS011;9505;50.882;5.350;2023-02-19T05:59:21;39.97;;;5.20;;
18752;SDS011;9505;50.882;5.350;2023-02-19T06:01:49;37.50;;;5.57;;
18752;SDS011;9505;50.882;5.350;2023-02-19T06:04:15;41.80;;;6.45;;
18752;SDS011;9505;50.882;5.350;2023-02-19T06:06:43;34.15;;;4.88;;
18752;SDS011;9505;50.882;5.350;2023-02-19T06:09:10;46.10;;;5.97;;
18752;SDS011;9505;50.882;5.350;2023-02-19T06:11:38;33.45;;;5.05;;
18752;SDS011;9505;50.882;5.350;2023-02-19T06:14:04;34.25;;;4.95;;
18752;SDS011;9505;50.882;5.350;2023-02-19T06:16:30;32.10;;;4.95;;
18752;SDS011;9505;50.882;5.350;2023-02-19T06:18:57;34.00;;;4.65;;
18752;SDS011;9505;50.882;5.350;2023-02-19T06:21:23;44.45;;;5.60;;
18752;SDS011;9505;50.882;5.350;2023-02-19T06:23:49;44.00;;;5.55;;
18752;SDS011;9505;50.882;5.350;2023-02-19T06:28:42;42.85;;;5.63;;
18752;SDS011;9505;50.882;5.350;2023-02-19T06:31:09;49.00;;;5.78;;
18752;SDS011;9505;50.882;5.350;2023-02-19T06:33:35;40.65;;;5.57;;
18752;SDS011;9505;50.882;5.350;2023-02-19T06:36:04;33.97;;;4.50;;
18752;SDS011;9505;50.882;5.350;2023-02-19T06:38:31;31.17;;;4.50;;
18752;SDS011;9505;50.882;5.350;2023-02-19T06:41:03;36.72;;;4.93;;
18752;SDS011;9505;50.882;5.350;2023-02-19T06:43:30;37.80;;;4.68;;
18752;SDS011;9505;50.882;5.350;2023-02-19T06:45:57;42.95;;;5.82;;
18752;SDS011;9505;50.882;5.350;2023-02-19T06:48:24;40.72;;;5.43;;
18752;SDS011;9505;50.882;5.350;2023-02-19T06:50:51;44.67;;;5.88;;
18752;SDS011;9505;50.882;5.350;2023-02-19T06:53:16;41.17;;;5.28;;
18752;SDS011;9505;50.882;5.350;2023-02-19T06:55:42;35.63;;;5.90;;
18752;SDS011;9505;50.882;5.350;2023-02-19T06:58:07;60.15;;;7.55;;
18752;SDS011;9505;50.882;5.350;2023-02-19T07:00:33;42.08;;;5.82;;
18752;SDS011;9505;50.882;5.350;2023-02-19T07:02:59;35.75;;;5.30;;
18752;SDS011;9505;50.882;5.350;2023-02-19T07:05:25;42.97;;;6.00;;
18752;SDS011;9505;50.882;5.350;2023-02-19T07:07:51;37.95;;;4.88;;
18752;SDS011;9505;50.882;5.350;2023-02-19T07:10:16;36.88;;;5.15;;
18752;SDS011;9505;50.882;5.350;2023-02-19T07:12:42;50.33;;;6.07;;
18752;SDS011;9505;50.882;5.350;2023-02-19T07:15:08;41.95;;;5.00;;
18752;SDS011;9505;50.882;5.350;2023-02-19T07:17:34;45.03;;;6.03;;
18752;SDS011;9505;50.882;5.350;2023-02-19T07:20:00;31.35;;;5.13;;
18752;SDS011;9505;50.882;5.350;2023-02-19T07:22:26;36.30;;;5.47;;
18752;SDS011;9505;50.882;5.350;2023-02-19T07:24:51;34.83;;;4.85;;
18752;SDS011;9505;50.882;5.350;2023-02-19T07:27:17;37.80;;;5.32;;
18752;SDS011;9505;50.882;5.350;2023-02-19T07:29:43;43.00;;;5.95;;
18752;SDS011;9505;50.882;5.350;2023-02-19T07:32:08;37.95;;;5.63;;
18752;SDS011;9505;50.882;5.350;2023-02-19T07:34:34;30.95;;;4.63;;
18752;SDS011;9505;50.882;5.350;2023-02-19T07:37:00;40.60;;;5.68;;
18752;SDS011;9505;50.882;5.350;2023-02-19T07:39:25;30.77;;;4.38;;
18752;SDS011;9505;50.882;5.350;2023-02-19T07:41:51;31.83;;;4.75;;
18752;SDS011;9505;50.882;5.350;2023-02-19T07:44:17;33.65;;;4.90;;
18752;SDS011;9505;50.882;5.350;2023-02-19T07:46:43;37.83;;;5.13;;
18752;SDS011;9505;50.882;5.350;2023-02-19T07:49:08;44.15;;;5.40;;
18752;SDS011;9505;50.882;5.350;2023-02-19T07:51:34;36.25;;;4.85;;
18752;SDS011;9505;50.882;5.350;2023-02-19T07:54:03;43.75;;;5.65;;
18752;SDS011;9505;50.882;5.350;2023-02-19T07:56:29;41.70;;;5.95;;
18752;SDS011;9505;50.882;5.350;2023-02-19T07:58:55;39.78;;;5.13;;
18752;SDS011;9505;50.882;5.350;2023-02-19T08:01:21;34.85;;;5.30;;
18752;SDS011;9505;50.882;5.350;2023-02-19T08:04:07;46.05;;;5.28;;
18752;SDS011;9505;50.882;5.350;2023-02-19T08:06:33;40.22;;;5.43;;
18752;SDS011;9505;50.882;5.350;2023-02-19T08:08:58;46.30;;;5.40;;
18752;SDS011;9505;50.882;5.350;2023-02-19T08:11:24;35.30;;;5.18;;
18752;SDS011;9505;50.882;5.350;2023-02-19T08:14:08;40.90;;;5.35;;
18752;SDS011;9505;50.882;5.350;2023-02-19T08:16:33;34.58;;;5.40;;
18752;SDS011;9505;50.882;5.350;2023-02-19T08:18:59;39.97;;;5.78;;
18752;SDS011;9505;50.882;5.350;2023-02-19T08:21:24;43.65;;;6.03;;
18752;SDS011;9505;50.882;5.350;2023-02-19T08:23:50;41.35;;;5.72;;
18752;SDS011;9505;50.882;5.350;2023-02-19T08:26:16;45.88;;;6.18;;
18752;SDS011;9505;50.882;5.350;2023-02-19T08:28:41;48.22;;;6.82;;
18752;SDS011;9505;50.882;5.350;2023-02-19T08:31:08;52.78;;;7.00;;
18752;SDS011;9505;50.882;5.350;2023-02-19T08:33:35;32.20;;;5.45;;
18752;SDS011;9505;50.882;5.350;2023-02-19T08:36:05;42.78;;;6.63;;
18752;SDS011;9505;50.882;5.350;2023-02-19T08:38:32;38.63;;;5.57;;
18752;SDS011;9505;50.882;5.350;2023-02-19T08:41:03;34.17;;;5.32;;
18752;SDS011;9505;50.882;5.350;2023-02-19T08:43:30;42.20;;;5.63;;
18752;SDS011;9505;50.882;5.350;2023-02-19T08:45:55;37.75;;;5.72;;
18752;SDS011;9505;50.882;5.350;2023-02-19T08:48:21;42.72;;;6.45;;
18752;SDS011;9505;50.882;5.350;2023-02-19T08:50:53;35.90;;;5.00;;
18752;SDS011;9505;50.882;5.350;2023-02-19T08:53:28;34.83;;;5.80;;
18752;SDS011;9505;50.882;5.350;2023-02-19T08:55:55;43.65;;;5.75;;
18752;SDS011;9505;50.882;5.350;2023-02-19T08:58:21;50.05;;;6.82;;
18752;SDS011;9505;50.882;5.350;2023-02-19T09:00:47;36.55;;;5.18;;
18752;SDS011;9505;50.882;5.350;2023-02-19T09:03:12;38.42;;;6.20;;
18752;SDS011;9505;50.882;5.350;2023-02-19T09:05:38;36.25;;;5.25;;
18752;SDS011;9505;50.882;5.350;2023-02-19T09:08:04;38.25;;;5.20;;
18752;SDS011;9505;50.882;5.350;2023-02-19T09:10:30;36.97;;;5.85;;
18752;SDS011;9505;50.882;5.350;2023-02-19T09:12:56;36.20;;;5.50;;
18752;SDS011;9505;50.882;5.350;2023-02-19T09:15:21;38.95;;;5.75;;
18752;SDS011;9505;50.882;5.350;2023-02-19T09:17:53;38.60;;;5.72;;
18752;SDS011;9505;50.882;5.350;2023-02-19T09:20:19;39.72;;;6.05;;
18752;SDS011;9505;50.882;5.350;2023-02-19T09:22:44;35.63;;;6.18;;
18752;SDS011;9505;50.882;5.350;2023-02-19T09:25:10;58.55;;;7.68;;
18752;SDS011;9505;50.882;5.350;2023-02-19T09:27:36;40.13;;;6.40;;
18752;SDS011;9505;50.882;5.350;2023-02-19T09:30:01;38.28;;;6.50;;
18752;SDS011;9505;50.882;5.350;2023-02-19T09:32:29;32.97;;;5.90;;
18752;SDS011;9505;50.882;5.350;2023-02-19T09:34:55;33.92;;;6.13;;
18752;SDS011;9505;50.882;5.350;2023-02-19T09:37:24;32.80;;;5.97;;
18752;SDS011;9505;50.882;5.350;2023-02-19T09:39:52;47.85;;;6.82;;
18752;SDS011;9505;50.882;5.350;2023-02-19T09:42:22;43.50;;;7.18;;
18752;SDS011;9505;50.882;5.350;2023-02-19T09:44:51;41.08;;;6.07;;
18752;SDS011;9505;50.882;5.350;2023-02-19T09:47:23;33.85;;;6.05;;
18752;SDS011;9505;50.882;5.350;2023-02-19T09:49:53;37.65;;;6.10;;
18752;SDS011;9505;50.882;5.350;2023-02-19T09:52:24;36.65;;;5.53;;
18752;SDS011;9505;50.882;5.350;2023-02-19T09:54:59;39.25;;;5.78;;
18752;SDS011;9505;50.882;5.350;2023-02-19T09:57:29;50.35;;;6.80;;
18752;SDS011;9505;50.882;5.350;2023-02-19T09:59:58;38.53;;;5.47;;
18752;SDS011;9505;50.882;5.350;2023-02-19T10:02:35;44.60;;;6.72;;
18752;SDS011;9505;50.882;5.350;2023-02-19T10:05:01;36.15;;;6.18;;
18752;SDS011;9505;50.882;5.350;2023-02-19T10:07:46;45.72;;;6.60;;
18752;SDS011;9505;50.882;5.350;2023-02-19T10:12:42;40.67;;;6.55;;
18752;SDS011;9505;50.882;5.350;2023-02-19T10:17:46;38.20;;;5.35;;
18752;SDS011;9505;50.882;5.350;2023-02-19T10:20:15;29.25;;;5.25;;
18752;SDS011;9505;50.882;5.350;2023-02-19T10:22:46;33.28;;;6.13;;
18752;SDS011;9505;50.882;5.350;2023-02-19T10:25:13;38.10;;;5.80;;
18752;SDS011;9505;50.882;5.350;2023-02-19T10:27:41;57.70;;;8.15;;
18752;SDS011;9505;50.882;5.350;2023-02-19T10:30:14;59.35;;;9.90;;
18752;SDS011;9505;50.882;5.350;2023-02-19T10:32:58;77.35;;;10.52;;
18752;SDS011;9505;50.882;5.350;2023-02-19T10:35:34;42.08;;;6.68;;
18752;SDS011;9505;50.882;5.350;2023-02-19T10:38:01;36.33;;;6.55;;
18752;SDS011;9505;50.882;5.350;2023-02-19T10:40:30;64.65;;;9.27;;
18752;SDS011;9505;50.882;5.350;2023-02-19T10:42:58;58.03;;;9.23;;
18752;SDS011;9505;50.882;5.350;2023-02-19T10:45:34;57.70;;;9.88;;
18752;SDS011;9505;50.882;5.350;2023-02-19T10:48:04;58.83;;;8.95;;
18752;SDS011;9505;50.882;5.350;2023-02-19T10:50:45;42.63;;;7.60;;
18752;SDS011;9505;50.882;5.350;2023-02-19T10:53:20;36.45;;;6.45;;
18752;SDS011;9505;50.882;5.350;2023-02-19T10:55:47;55.05;;;8.60;;
18752;SDS011;9505;50.882;5.350;2023-02-19T10:58:29;45.67;;;8.13;;
18752;SDS011;9505;50.882;5.350;2023-02-19T11:03:46;61.28;;;9.68;;
18752;SDS011;9505;50.882;5.350;2023-02-19T11:06:14;47.35;;;7.55;;
18752;SDS011;9505;50.882;5.350;2023-02-19T11:13:59;73.18;;;10.02;;
18752;SDS011;9505;50.882;5.350;2023-02-19T11:16:54;41.17;;;7.05;;
18752;SDS011;9505;50.882;5.350;2023-02-19T11:19:43;43.72;;;7.40;;
18752;SDS011;9505;50.882;5.350;2023-02-19T11:25:19;38.15;;;7.18;;
18752;SDS011;9505;50.882;5.350;2023-02-19T11:28:04;72.25;;;11.40;;
18752;SDS011;9505;50.882;5.350;2023-02-19T11:33:19;52.33;;;9.57;;
18752;SDS011;9505;50.882;5.350;2023-02-19T11:35:53;65.93;;;11.52;;
18752;SDS011;9505;50.882;5.350;2023-02-19T11:38:41;43.03;;;8.50;;
18752;SDS011;9505;50.882;5.350;2023-02-19T11:41:10;54.95;;;10.35;;
18752;SDS011;9505;50.882;5.350;2023-02-19T11:49:23;70.50;;;11.10;;
18752;SDS011;9505;50.882;5.350;2023-02-19T11:55:09;40.05;;;8.95;;
18752;SDS011;9505;50.882;5.350;2023-02-19T11:57:51;65.47;;;11.20;;
18752;SDS011;9505;50.882;5.350;2023-02-19T12:09:30;45.17;;;8.25;;
18752;SDS011;9505;50.882;5.350;2023-02-19T12:12:00;61.60;;;9.70;;
18752;SDS011;9505;50.882;5.350;2023-02-19T12:14:51;40.17;;;6.90;;
18752;SDS011;9505;50.882;5.350;2023-02-19T12:17:38;38.65;;;7.97;;
18752;SDS011;9505;50.882;5.350;2023-02-19T12:26:24;74.28;;;11.63;;
18752;SDS011;9505;50.882;5.350;2023-02-19T12:37:18;56.25;;;10.15;;
18752;SDS011;9505;50.882;5.350;2023-02-19T12:39:53;37.90;;;7.50;;
18752;SDS011;9505;50.882;5.350;2023-02-19T12:45:16;57.38;;;10.68;;
18752;SDS011;9505;50.882;5.350;2023-02-19T12:47:53;75.63;;;12.30;;
18752;SDS011;9505;50.882;5.350;2023-02-19T12:50:40;50.92;;;9.18;;
18752;SDS011;9505;50.882;5.350;2023-02-19T12:53:12;42.10;;;8.20;;
18752;SDS011;9505;50.882;5.350;2023-02-19T12:55:58;65.95;;;11.18;;
18752;SDS011;9505;50.882;5.350;2023-02-19T12:58:33;58.97;;;10.40;;
18752;SDS011;9505;50.882;5.350;2023-02-19T13:01:17;37.65;;;8.20;;
18752;SDS011;9505;50.882;5.350;2023-02-19T13:03:52;39.75;;;7.55;;
18752;SDS011;9505;50.882;5.350;2023-02-19T13:06:40;72.47;;;12.32;;
18752;SDS011;9505;50.882;5.350;2023-02-19T13:09:22;65.07;;;11.80;;
18752;SDS011;9505;50.882;5.350;2023-02-19T13:12:03;39.35;;;7.82;;
18752;SDS011;9505;50.882;5.350;2023-02-19T13:15:06;30.58;;;6.97;;
18752;SDS011;9505;50.882;5.350;2023-02-19T13:20:52;37.30;;;7.57;;
18752;SDS011;9505;50.882;5.350;2023-02-19T13:34:10;53.70;;;11.52;;
18752;SDS011;9505;50.882;5.350;2023-02-19T13:36:45;74.82;;;12.35;;
18752;SDS011;9505;50.882;5.350;2023-02-19T13:39:12;68.93;;;11.52;;
18752;SDS011;9505;50.882;5.350;2023-02-19T13:41:40;51.75;;;9.77;;
18752;SDS011;9505;50.882;5.350;2023-02-19T13:44:20;57.80;;;10.77;;
18752;SDS011;9505;50.882;5.350;2023-02-19T13:46:49;65.00;;;11.32;;
18752;SDS011;9505;50.882;5.350;2023-02-19T13:51:56;64.32;;;12.18;;
18752;SDS011;9505;50.882;5.350;2023-02-19T13:54:24;51.83;;;9.70;;
18752;SDS011;9505;50.882;5.350;2023-02-19T13:59:46;57.17;;;10.75;;
18752;SDS011;9505;50.882;5.350;2023-02-19T14:14:42;42.75;;;8.55;;
18752;SDS011;9505;50.882;5.350;2023-02-19T14:17:36;38.28;;;8.07;;
18752;SDS011;9505;50.882;5.350;2023-02-19T14:30:27;78.07;;;14.45;;
18752;SDS011;9505;50.882;5.350;2023-02-19T14:32:53;75.53;;;14.30;;
18752;SDS011;9505;50.882;5.350;2023-02-19T14:35:20;55.33;;;10.90;;
18752;SDS011;9505;50.882;5.350;2023-02-19T14:37:47;46.45;;;10.50;;
18752;SDS011;9505;50.882;5.350;2023-02-19T14:40:20;50.90;;;10.82;;
18752;SDS011;9505;50.882;5.350;2023-02-19T14:42:59;47.70;;;9.63;;
18752;SDS011;9505;50.882;5.350;2023-02-19T14:45:26;38.17;;;7.45;;
18752;SDS011;9505;50.882;5.350;2023-02-19T14:47:53;59.80;;;10.13;;
18752;SDS011;9505;50.882;5.350;2023-02-19T14:50:27;61.05;;;10.07;;
18752;SDS011;9505;50.882;5.350;2023-02-19T14:52:56;67.57;;;10.80;;
18752;SDS011;9505;50.882;5.350;2023-02-19T14:55:26;53.60;;;9.10;;
18752;SDS011;9505;50.882;5.350;2023-02-19T14:57:57;84.03;;;13.48;;
18752;SDS011;9505;50.882;5.350;2023-02-19T15:00:38;54.33;;;10.02;;
18752;SDS011;9505;50.882;5.350;2023-02-19T15:03:06;55.95;;;9.55;;
18752;SDS011;9505;50.882;5.350;2023-02-19T15:05:52;40.60;;;7.53;;
18752;SDS011;9505;50.882;5.350;2023-02-19T15:08:21;43.88;;;7.75;;
18752;SDS011;9505;50.882;5.350;2023-02-19T15:10:56;32.05;;;6.78;;
18752;SDS011;9505;50.882;5.350;2023-02-19T15:13:24;64.55;;;10.13;;
18752;SDS011;9505;50.882;5.350;2023-02-19T15:15:52;65.05;;;10.77;;
18752;SDS011;9505;50.882;5.350;2023-02-19T15:18:20;48.67;;;9.02;;
18752;SDS011;9505;50.882;5.350;2023-02-19T15:20:48;29.52;;;6.15;;
18752;SDS011;9505;50.882;5.350;2023-02-19T15:23:17;30.60;;;6.15;;
18752;SDS011;9505;50.882;5.350;2023-02-19T15:25:46;35.83;;;7.00;;
18752;SDS011;9505;50.882;5.350;2023-02-19T15:30:48;48.72;;;8.15;;
18752;SDS011;9505;50.882;5.350;2023-02-19T15:33:16;57.83;;;9.77;;
18752;SDS011;9505;50.882;5.350;2023-02-19T15:35:46;51.65;;;8.55;;
18752;SDS011;9505;50.882;5.350;2023-02-19T15:38:16;64.22;;;9.05;;
18752;SDS011;9505;50.882;5.350;2023-02-19T15:40:43;33.60;;;6.10;;
18752;SDS011;9505;50.882;5.350;2023-02-19T15:43:31;31.52;;;5.55;;
18752;SDS011;9505;50.882;5.350;2023-02-19T15:46:00;46.75;;;8.65;;
18752;SDS011;9505;50.882;5.350;2023-02-19T15:48:39;75.97;;;11.07;;
18752;SDS011;9505;50.882;5.350;2023-02-19T15:51:13;54.10;;;8.65;;
18752;SDS011;9505;50.882;5.350;2023-02-19T15:53:47;57.10;;;9.23;;
18752;SDS011;9505;50.882;5.350;2023-02-19T15:56:25;62.47;;;9.82;;
18752;SDS011;9505;50.882;5.350;2023-02-19T16:01:38;30.55;;;4.72;;
18752;SDS011;9505;50.882;5.350;2023-02-19T16:04:14;41.85;;;6.60;;
18752;SDS011;9505;50.882;5.350;2023-02-19T16:09:20;27.52;;;5.43;;
18752;SDS011;9505;50.882;5.350;2023-02-19T16:11:58;42.90;;;6.40;;
18752;SDS011;9505;50.882;5.350;2023-02-19T16:22:09;29.88;;;5.68;;
18752;SDS011;9505;50.882;5.350;2023-02-19T16:24:39;32.97;;;5.40;;
18752;SDS011;9505;50.882;5.350;2023-02-19T16:27:09;27.48;;;4.97;;
18752;SDS011;9505;50.882;5.350;2023-02-19T16:29:38;42.38;;;7.82;;
18752;SDS011;9505;50.882;5.350;2023-02-19T16:32:05;64.10;;;9.80;;
18752;SDS011;9505;50.882;5.350;2023-02-19T16:34:38;63.50;;;9.77;;
18752;SDS011;9505;50.882;5.350;2023-02-19T16:37:28;55.85;;;8.95;;
18752;SDS011;9505;50.882;5.350;2023-02-19T16:40:04;25.88;;;5.03;;
18752;SDS011;9505;50.882;5.350;2023-02-19T16:45:13;44.70;;;7.55;;
18752;SDS011;9505;50.882;5.350;2023-02-19T16:47:38;30.90;;;5.57;;
18752;SDS011;9505;50.882;5.350;2023-02-19T16:50:13;38.95;;;7.18;;
18752;SDS011;9505;50.882;5.350;2023-02-19T16:52:53;36.55;;;6.38;;
18752;SDS011;9505;50.882;5.350;2023-02-19T16:55:23;33.50;;;5.78;;
18752;SDS011;9505;50.882;5.350;2023-02-19T16:57:50;32.20;;;5.78;;
18752;SDS011;9505;50.882;5.350;2023-02-19T17:00:19;61.20;;;9.30;;
18752;SDS011;9505;50.882;5.350;2023-02-19T17:02:47;57.10;;;9.90;;
18752;SDS011;9505;50.882;5.350;2023-02-19T17:05:15;59.38;;;9.25;;
18752;SDS011;9505;50.882;5.350;2023-02-19T17:07:43;43.58;;;7.35;;
18752;SDS011;9505;50.882;5.350;2023-02-19T17:10:18;38.95;;;6.40;;
18752;SDS011;9505;50.882;5.350;2023-02-19T17:12:52;36.83;;;6.78;;
18752;SDS011;9505;50.882;5.350;2023-02-19T17:15:18;32.70;;;6.63;;
18752;SDS011;9505;50.882;5.350;2023-02-19T17:17:44;23.85;;;5.10;;
18752;SDS011;9505;50.882;5.350;2023-02-19T17:22:45;40.00;;;7.47;;
18752;SDS011;9505;50.882;5.350;2023-02-19T17:25:10;52.28;;;9.05;;
18752;SDS011;9505;50.882;5.350;2023-02-19T17:27:36;48.78;;;8.30;;
18752;SDS011;9505;50.882;5.350;2023-02-19T17:30:02;38.85;;;6.25;;
18752;SDS011;9505;50.882;5.350;2023-02-19T17:32:34;41.20;;;7.43;;
18752;SDS011;9505;50.882;5.350;2023-02-19T17:34:59;29.15;;;5.70;;
18752;SDS011;9505;50.882;5.350;2023-02-19T17:37:25;48.30;;;8.45;;
18752;SDS011;9505;50.882;5.350;2023-02-19T17:39:51;61.42;;;9.95;;
18752;SDS011;9505;50.882;5.350;2023-02-19T17:42:16;35.78;;;6.70;;